sensor_id;sensor_type;location;lat;lon;timestamp;P1;durP1;ratioP1;P2;durP2;ratioP2
19036;SDS011;9651;49.138;8.900;2023-05-10T00:00:55;3.60;;;1.15;;
19036;SDS011;9651;49.138;8.900;2023-05-10T00:04:57;3.58;;;1.48;;
19036;SDS011;9651;49.138;8.900;2023-05-10T00:08:59;1.87;;;1.17;;
19036;SDS011;9651;49.138;8.900;2023-05-10T00:13:02;1.52;;;1.42;;
19036;SDS011;9651;49.138;8.900;2023-05-10T00:17:04;3.72;;;1.30;;
19036;SDS011;9651;49.138;8.900;2023-05-10T00:21:06;1.58;;;1.25;;
19036;SDS011;9651;49.138;8.900;2023-05-10T00:25:08;2.08;;;1.30;;
19036;SDS011;9651;49.138;8.900;2023-05-10T00:29:11;3.43;;;1.57;;
19036;SDS011;9651;49.138;8.900;2023-05-10T00:33:13;1.65;;;1.50;;
19036;SDS011;9651;49.138;8.900;2023-05-10T00:37:15;3.88;;;1.50;;
19036;SDS011;9651;49.138;8.900;2023-05-10T00:41:17;1.70;;;1.60;;
19036;SDS011;9651;49.138;8.900;2023-05-10T00:45:22;1.50;;;1.40;;
19036;SDS011;9651;49.138;8.900;2023-05-10T00:49:25;3.77;;;1.43;;
19036;SDS011;9651;49.138;8.900;2023-05-10T00:53:27;1.70;;;1.60;;
19036;SDS011;9651;49.138;8.900;2023-05-10T00:57:29;1.57;;;1.37;;
19036;SDS011;9651;49.138;8.900;2023-05-10T01:01:33;2.25;;;1.60;;
19036;SDS011;9651;49.138;8.900;2023-05-10T01:05:35;1.85;;;1.75;;
19036;SDS011;9651;49.138;8.900;2023-05-10T01:09:37;1.90;;;1.80;;
19036;SDS011;9651;49.138;8.900;2023-05-10T01:13:40;1.80;;;1.70;;
19036;SDS011;9651;49.138;8.900;2023-05-10T01:17:45;2.42;;;1.70;;
19036;SDS011;9651;49.138;8.900;2023-05-10T01:21:49;1.83;;;1.63;;
19036;SDS011;9651;49.138;8.900;2023-05-10T01:26:13;1.50;;;1.40;;
19036;SDS011;9651;49.138;8.900;2023-05-10T01:30:38;1.60;;;1.23;;
19036;SDS011;9651;49.138;8.900;2023-05-10T01:34:55;1.63;;;1.10;;
19036;SDS011;9651;49.138;8.900;2023-05-10T01:39:02;2.20;;;0.93;;
19036;SDS011;9651;49.138;8.900;2023-05-10T01:43:14;1.63;;;1.37;;
19036;SDS011;9651;49.138;8.900;2023-05-10T01:47:24;1.37;;;1.27;;
19036;SDS011;9651;49.138;8.900;2023-05-10T01:51:35;1.80;;;1.50;;
19036;SDS011;9651;49.138;8.900;2023-05-10T01:55:42;2.00;;;1.60;;
19036;SDS011;9651;49.138;8.900;2023-05-10T01:59:47;1.70;;;1.60;;
19036;SDS011;9651;49.138;8.900;2023-05-10T02:03:52;4.13;;;1.73;;
19036;SDS011;9651;49.138;8.900;2023-05-10T02:07:58;2.00;;;1.80;;
19036;SDS011;9651;49.138;8.900;2023-05-10T02:12:02;1.80;;;1.70;;
19036;SDS011;9651;49.138;8.900;2023-05-10T02:16:06;2.03;;;1.63;;
19036;SDS011;9651;49.138;8.900;2023-05-10T02:20:09;1.90;;;1.53;;
19036;SDS011;9651;49.138;8.900;2023-05-10T02:24:14;2.60;;;2.13;;
19036;SDS011;9651;49.138;8.900;2023-05-10T02:28:17;4.77;;;1.57;;
19036;SDS011;9651;49.138;8.900;2023-05-10T02:32:19;1.83;;;1.73;;
19036;SDS011;9651;49.138;8.900;2023-05-10T02:36:24;2.17;;;1.97;;
19036;SDS011;9651;49.138;8.900;2023-05-10T02:40:28;1.80;;;1.70;;
19036;SDS011;9651;49.138;8.900;2023-05-10T02:44:31;1.67;;;1.47;;
19036;SDS011;9651;49.138;8.900;2023-05-10T02:48:35;6.57;;;1.93;;
19036;SDS011;9651;49.138;8.900;2023-05-10T02:52:39;2.10;;;1.90;;
19036;SDS011;9651;49.138;8.900;2023-05-10T02:56:47;1.90;;;1.80;;
19036;SDS011;9651;49.138;8.900;2023-05-10T03:00:51;1.80;;;1.70;;
19036;SDS011;9651;49.138;8.900;2023-05-10T03:04:53;2.67;;;2.10;;
19036;SDS011;9651;49.138;8.900;2023-05-10T03:08:55;2.67;;;2.07;;
19036;SDS011;9651;49.138;8.900;2023-05-10T03:13:05;2.90;;;2.30;;
19036;SDS011;9651;49.138;8.900;2023-05-10T03:17:14;4.10;;;2.40;;
19036;SDS011;9651;49.138;8.900;2023-05-10T03:21:32;2.90;;;2.70;;
19036;SDS011;9651;49.138;8.900;2023-05-10T03:25:36;6.23;;;3.90;;
19036;SDS011;9651;49.138;8.900;2023-05-10T03:29:41;4.80;;;3.20;;
19036;SDS011;9651;49.138;8.900;2023-05-10T03:33:45;3.87;;;3.47;;
19036;SDS011;9651;49.138;8.900;2023-05-10T03:37:52;4.23;;;3.33;;
19036;SDS011;9651;49.138;8.900;2023-05-10T03:41:54;3.80;;;3.43;;
19036;SDS011;9651;49.138;8.900;2023-05-10T03:45:57;3.93;;;3.53;;
19036;SDS011;9651;49.138;8.900;2023-05-10T03:49:59;4.80;;;3.97;;
19036;SDS011;9651;49.138;8.900;2023-05-10T03:54:02;4.00;;;3.70;;
19036;SDS011;9651;49.138;8.900;2023-05-10T03:58:05;4.17;;;3.80;;
19036;SDS011;9651;49.138;8.900;2023-05-10T04:02:09;13.20;;;4.70;;
19036;SDS011;9651;49.138;8.900;2023-05-10T04:06:11;4.13;;;3.73;;
19036;SDS011;9651;49.138;8.900;2023-05-10T04:10:12;4.53;;;4.13;;
19036;SDS011;9651;49.138;8.900;2023-05-10T04:14:16;4.80;;;4.40;;
19036;SDS011;9651;49.138;8.900;2023-05-10T04:18:19;5.10;;;4.50;;
19036;SDS011;9651;49.138;8.900;2023-05-10T04:22:21;5.73;;;4.40;;
19036;SDS011;9651;49.138;8.900;2023-05-10T04:26:23;4.53;;;3.80;;
19036;SDS011;9651;49.138;8.900;2023-05-10T04:30:25;4.73;;;4.33;;
19036;SDS011;9651;49.138;8.900;2023-05-10T04:34:30;4.73;;;4.03;;
19036;SDS011;9651;49.138;8.900;2023-05-10T04:38:34;4.83;;;4.30;;
19036;SDS011;9651;49.138;8.900;2023-05-10T04:42:36;4.93;;;4.43;;
19036;SDS011;9651;49.138;8.900;2023-05-10T04:46:37;5.07;;;4.57;;
19036;SDS011;9651;49.138;8.900;2023-05-10T04:50:41;4.83;;;4.23;;
19036;SDS011;9651;49.138;8.900;2023-05-10T04:54:42;5.10;;;4.60;;
19036;SDS011;9651;49.138;8.900;2023-05-10T04:58:44;4.43;;;4.03;;
19036;SDS011;9651;49.138;8.900;2023-05-10T05:02:46;6.53;;;4.10;;
19036;SDS011;9651;49.138;8.900;2023-05-10T05:06:49;4.50;;;4.10;;
19036;SDS011;9651;49.138;8.900;2023-05-10T05:10:51;4.00;;;3.60;;
19036;SDS011;9651;49.138;8.900;2023-05-10T05:14:53;5.20;;;4.03;;
19036;SDS011;9651;49.138;8.900;2023-05-10T05:18:55;4.00;;;3.70;;
19036;SDS011;9651;49.138;8.900;2023-05-10T05:22:58;5.37;;;4.40;;
19036;SDS011;9651;49.138;8.900;2023-05-10T05:27:00;4.07;;;3.67;;
19036;SDS011;9651;49.138;8.900;2023-05-10T05:31:02;3.77;;;3.43;;
19036;SDS011;9651;49.138;8.900;2023-05-10T05:35:04;3.83;;;3.43;;
19036;SDS011;9651;49.138;8.900;2023-05-10T05:39:08;5.07;;;3.47;;
19036;SDS011;9651;49.138;8.900;2023-05-10T05:43:10;3.77;;;3.47;;
19036;SDS011;9651;49.138;8.900;2023-05-10T05:47:12;3.73;;;3.13;;
19036;SDS011;9651;49.138;8.900;2023-05-10T05:51:14;4.07;;;3.23;;
19036;SDS011;9651;49.138;8.900;2023-05-10T05:55:17;3.78;;;3.47;;
19036;SDS011;9651;49.138;8.900;2023-05-10T05:59:19;5.10;;;3.07;;
19036;SDS011;9651;49.138;8.900;2023-05-10T06:03:21;3.17;;;2.88;;
19036;SDS011;9651;49.138;8.900;2023-05-10T06:07:22;2.83;;;2.50;;
19036;SDS011;9651;49.138;8.900;2023-05-10T06:11:26;2.97;;;2.70;;
19036;SDS011;9651;49.138;8.900;2023-05-10T06:15:28;3.03;;;2.40;;
19036;SDS011;9651;49.138;8.900;2023-05-10T06:19:30;4.32;;;3.00;;
19036;SDS011;9651;49.138;8.900;2023-05-10T06:23:32;4.53;;;2.35;;
19036;SDS011;9651;49.138;8.900;2023-05-10T06:27:35;3.55;;;2.47;;
19036;SDS011;9651;49.138;8.900;2023-05-10T06:31:37;2.77;;;2.53;;
19036;SDS011;9651;49.138;8.900;2023-05-10T06:35:39;3.15;;;2.28;;
19036;SDS011;9651;49.138;8.900;2023-05-10T06:39:41;4.13;;;2.20;;
19036;SDS011;9651;49.138;8.900;2023-05-10T06:43:45;2.40;;;1.88;;
19036;SDS011;9651;49.138;8.900;2023-05-10T06:47:46;2.08;;;1.77;;
19036;SDS011;9651;49.138;8.900;2023-05-10T06:51:49;1.98;;;1.80;;
19036;SDS011;9651;49.138;8.900;2023-05-10T06:55:50;4.22;;;2.08;;
19036;SDS011;9651;49.138;8.900;2023-05-10T06:59:54;2.35;;;1.90;;
19036;SDS011;9651;49.138;8.900;2023-05-10T07:03:56;1.55;;;1.38;;
19036;SDS011;9651;49.138;8.900;2023-05-10T07:07:58;2.40;;;1.35;;
19036;SDS011;9651;49.138;8.900;2023-05-10T07:12:01;4.40;;;1.88;;
19036;SDS011;9651;49.138;8.900;2023-05-10T07:16:04;1.38;;;1.27;;
19036;SDS011;9651;49.138;8.900;2023-05-10T07:20:08;1.98;;;1.20;;
19036;SDS011;9651;49.138;8.900;2023-05-10T07:24:10;1.42;;;1.25;;
19036;SDS011;9651;49.138;8.900;2023-05-10T07:28:12;2.83;;;1.10;;
19036;SDS011;9651;49.138;8.900;2023-05-10T07:32:16;1.77;;;1.15;;
19036;SDS011;9651;49.138;8.900;2023-05-10T07:36:17;0.90;;;0.90;;
19036;SDS011;9651;49.138;8.900;2023-05-10T07:40:20;2.53;;;1.10;;
19036;SDS011;9651;49.138;8.900;2023-05-10T07:44:22;1.40;;;1.10;;
19036;SDS011;9651;49.138;8.900;2023-05-10T07:48:25;2.45;;;1.20;;
19036;SDS011;9651;49.138;8.900;2023-05-10T07:52:27;1.05;;;0.95;;
19036;SDS011;9651;49.138;8.900;2023-05-10T07:56:30;1.00;;;0.90;;
19036;SDS011;9651;49.138;8.900;2023-05-10T08:00:33;1.05;;;1.02;;
19036;SDS011;9651;49.138;8.900;2023-05-10T08:04:36;2.58;;;1.10;;
19036;SDS011;9651;49.138;8.900;2023-05-10T08:08:38;1.60;;;1.05;;
19036;SDS011;9651;49.138;8.900;2023-05-10T08:12:40;2.45;;;1.17;;
19036;SDS011;9651;49.138;8.900;2023-05-10T08:16:42;1.30;;;1.17;;
19036;SDS011;9651;49.138;8.900;2023-05-10T08:20:45;1.73;;;1.20;;
19036;SDS011;9651;49.138;8.900;2023-05-10T08:24:47;1.52;;;1.00;;
19036;SDS011;9651;49.138;8.900;2023-05-10T08:28:49;2.42;;;1.20;;
19036;SDS011;9651;49.138;8.900;2023-05-10T08:32:50;1.30;;;1.20;;
19036;SDS011;9651;49.138;8.900;2023-05-10T08:36:54;1.33;;;1.13;;
19036;SDS011;9651;49.138;8.900;2023-05-10T08:40:55;1.55;;;1.38;;
19036;SDS011;9651;49.138;8.900;2023-05-10T08:45:00;1.40;;;1.27;;
19036;SDS011;9651;49.138;8.900;2023-05-10T08:49:03;1.20;;;1.00;;
19036;SDS011;9651;49.138;8.900;2023-05-10T08:53:09;2.90;;;0.80;;
19036;SDS011;9651;49.138;8.900;2023-05-10T08:57:11;3.67;;;1.10;;
19036;SDS011;9651;49.138;8.900;2023-05-10T09:01:13;2.33;;;0.80;;
19036;SDS011;9651;49.138;8.900;2023-05-10T09:05:17;3.30;;;0.93;;
19036;SDS011;9651;49.138;8.900;2023-05-10T09:09:21;1.33;;;1.10;;
19036;SDS011;9651;49.138;8.900;2023-05-10T09:13:23;1.15;;;1.05;;
19036;SDS011;9651;49.138;8.900;2023-05-10T09:17:26;0.85;;;0.70;;
19036;SDS011;9651;49.138;8.900;2023-05-10T09:21:30;2.53;;;1.02;;
19036;SDS011;9651;49.138;8.900;2023-05-10T09:25:33;0.80;;;0.80;;
19036;SDS011;9651;49.138;8.900;2023-05-10T09:29:38;1.27;;;1.10;;
19036;SDS011;9651;49.138;8.900;2023-05-10T09:33:43;1.13;;;0.90;;
19036;SDS011;9651;49.138;8.900;2023-05-10T09:37:46;1.42;;;0.88;;
19036;SDS011;9651;49.138;8.900;2023-05-10T09:41:50;0.68;;;0.68;;
19036;SDS011;9651;49.138;8.900;2023-05-10T09:45:53;1.23;;;0.77;;
19036;SDS011;9651;49.138;8.900;2023-05-10T09:49:55;1.02;;;0.90;;
19036;SDS011;9651;49.138;8.900;2023-05-10T09:54:09;3.28;;;0.80;;
19036;SDS011;9651;49.138;8.900;2023-05-10T09:58:13;1.30;;;0.80;;
19036;SDS011;9651;49.138;8.900;2023-05-10T10:02:15;2.13;;;0.80;;
19036;SDS011;9651;49.138;8.900;2023-05-10T10:06:18;1.13;;;0.77;;
19036;SDS011;9651;49.138;8.900;2023-05-10T10:10:20;0.98;;;0.85;;
19036;SDS011;9651;49.138;8.900;2023-05-10T10:14:24;1.15;;;0.93;;
19036;SDS011;9651;49.138;8.900;2023-05-10T10:18:26;1.38;;;0.80;;
19036;SDS011;9651;49.138;8.900;2023-05-10T10:22:28;1.42;;;0.90;;
19036;SDS011;9651;49.138;8.900;2023-05-10T10:26:30;2.15;;;0.90;;
19036;SDS011;9651;49.138;8.900;2023-05-10T10:30:37;0.70;;;0.70;;
19036;SDS011;9651;49.138;8.900;2023-05-10T10:34:43;0.80;;;0.80;;
19036;SDS011;9651;49.138;8.900;2023-05-10T10:38:55;0.93;;;0.60;;
19036;SDS011;9651;49.138;8.900;2023-05-10T10:47:25;1.80;;;0.80;;
19036;SDS011;9651;49.138;8.900;2023-05-10T10:51:35;1.83;;;0.70;;
19036;SDS011;9651;49.138;8.900;2023-05-10T10:55:44;1.83;;;0.52;;
19036;SDS011;9651;49.138;8.900;2023-05-10T10:59:48;0.52;;;0.50;;
19036;SDS011;9651;49.138;8.900;2023-05-10T11:08:26;0.52;;;0.40;;
19036;SDS011;9651;49.138;8.900;2023-05-10T11:12:29;0.70;;;0.40;;
19036;SDS011;9651;49.138;8.900;2023-05-10T11:16:40;1.45;;;0.80;;
19036;SDS011;9651;49.138;8.900;2023-05-10T11:20:44;1.10;;;0.80;;
19036;SDS011;9651;49.138;8.900;2023-05-10T11:24:56;1.52;;;0.82;;
19036;SDS011;9651;49.138;8.900;2023-05-10T11:28:58;0.70;;;0.65;;
19036;SDS011;9651;49.138;8.900;2023-05-10T11:33:00;2.33;;;0.85;;
19036;SDS011;9651;49.138;8.900;2023-05-10T11:37:04;3.10;;;1.05;;
19036;SDS011;9651;49.138;8.900;2023-05-10T11:41:07;0.75;;;0.70;;
19036;SDS011;9651;49.138;8.900;2023-05-10T11:45:11;1.85;;;0.90;;
19036;SDS011;9651;49.138;8.900;2023-05-10T11:49:13;1.38;;;0.80;;
19036;SDS011;9651;49.138;8.900;2023-05-10T11:53:16;2.50;;;0.80;;
19036;SDS011;9651;49.138;8.900;2023-05-10T11:57:21;2.03;;;0.70;;
19036;SDS011;9651;49.138;8.900;2023-05-10T12:01:28;1.98;;;0.80;;
19036;SDS011;9651;49.138;8.900;2023-05-10T12:05:31;1.20;;;0.88;;
19036;SDS011;9651;49.138;8.900;2023-05-10T12:09:35;1.80;;;0.95;;
19036;SDS011;9651;49.138;8.900;2023-05-10T12:13:37;2.60;;;1.30;;
19036;SDS011;9651;49.138;8.900;2023-05-10T12:17:41;2.58;;;1.45;;
19036;SDS011;9651;49.138;8.900;2023-05-10T12:21:44;3.22;;;1.40;;
19036;SDS011;9651;49.138;8.900;2023-05-10T12:25:48;3.63;;;1.20;;
19036;SDS011;9651;49.138;8.900;2023-05-10T12:29:50;3.20;;;1.40;;
19036;SDS011;9651;49.138;8.900;2023-05-10T12:33:52;3.97;;;1.25;;
19036;SDS011;9651;49.138;8.900;2023-05-10T12:37:54;5.00;;;1.00;;
19036;SDS011;9651;49.138;8.900;2023-05-10T12:41:57;1.90;;;1.02;;
19036;SDS011;9651;49.138;8.900;2023-05-10T12:46:03;3.00;;;0.82;;
19036;SDS011;9651;49.138;8.900;2023-05-10T12:50:06;1.60;;;1.17;;
19036;SDS011;9651;49.138;8.900;2023-05-10T12:54:09;2.75;;;1.05;;
19036;SDS011;9651;49.138;8.900;2023-05-10T12:58:12;3.03;;;0.77;;
19036;SDS011;9651;49.138;8.900;2023-05-10T13:02:14;1.63;;;0.80;;
19036;SDS011;9651;49.138;8.900;2023-05-10T13:06:18;3.40;;;0.85;;
19036;SDS011;9651;49.138;8.900;2023-05-10T13:10:20;5.57;;;1.00;;
19036;SDS011;9651;49.138;8.900;2023-05-10T13:14:25;1.42;;;0.50;;
19036;SDS011;9651;49.138;8.900;2023-05-10T13:18:27;1.88;;;0.52;;
19036;SDS011;9651;49.138;8.900;2023-05-10T13:22:29;0.95;;;0.52;;
19036;SDS011;9651;49.138;8.900;2023-05-10T13:26:31;1.48;;;0.50;;
19036;SDS011;9651;49.138;8.900;2023-05-10T13:30:34;1.17;;;0.60;;
19036;SDS011;9651;49.138;8.900;2023-05-10T13:34:36;0.65;;;0.47;;
19036;SDS011;9651;49.138;8.900;2023-05-10T13:38:38;1.70;;;0.70;;
19036;SDS011;9651;49.138;8.900;2023-05-10T13:42:39;1.52;;;0.57;;
19036;SDS011;9651;49.138;8.900;2023-05-10T13:46:44;0.80;;;0.68;;
19036;SDS011;9651;49.138;8.900;2023-05-10T13:50:46;2.53;;;0.68;;
19036;SDS011;9651;49.138;8.900;2023-05-10T13:54:48;1.35;;;0.90;;
19036;SDS011;9651;49.138;8.900;2023-05-10T13:58:52;2.90;;;0.93;;
19036;SDS011;9651;49.138;8.900;2023-05-10T14:02:55;1.17;;;0.60;;
19036;SDS011;9651;49.138;8.900;2023-05-10T14:06:57;1.65;;;0.75;;
19036;SDS011;9651;49.138;8.900;2023-05-10T14:10:59;1.90;;;0.80;;
19036;SDS011;9651;49.138;8.900;2023-05-10T14:15:01;1.52;;;0.88;;
19036;SDS011;9651;49.138;8.900;2023-05-10T14:19:07;2.00;;;0.80;;
19036;SDS011;9651;49.138;8.900;2023-05-10T14:23:09;2.92;;;0.85;;
19036;SDS011;9651;49.138;8.900;2023-05-10T14:27:11;1.10;;;0.98;;
19036;SDS011;9651;49.138;8.900;2023-05-10T14:31:13;4.10;;;1.27;;
19036;SDS011;9651;49.138;8.900;2023-05-10T14:35:18;1.52;;;1.10;;
19036;SDS011;9651;49.138;8.900;2023-05-10T14:39:20;1.10;;;0.70;;
19036;SDS011;9651;49.138;8.900;2023-05-10T14:43:22;1.48;;;0.80;;
19036;SDS011;9651;49.138;8.900;2023-05-10T14:47:24;0.75;;;0.70;;
19036;SDS011;9651;49.138;8.900;2023-05-10T14:51:27;3.63;;;0.90;;
19036;SDS011;9651;49.138;8.900;2023-05-10T14:55:29;2.22;;;0.88;;
19036;SDS011;9651;49.138;8.900;2023-05-10T14:59:31;1.98;;;1.00;;
19036;SDS011;9651;49.138;8.900;2023-05-10T15:03:33;1.60;;;0.93;;
19036;SDS011;9651;49.138;8.900;2023-05-10T15:07:36;0.80;;;0.70;;
19036;SDS011;9651;49.138;8.900;2023-05-10T15:11:38;1.15;;;0.75;;
19036;SDS011;9651;49.138;8.900;2023-05-10T15:15:40;0.77;;;0.77;;
19036;SDS011;9651;49.138;8.900;2023-05-10T15:19:42;0.80;;;0.77;;
19036;SDS011;9651;49.138;8.900;2023-05-10T15:23:46;1.83;;;0.80;;
19036;SDS011;9651;49.138;8.900;2023-05-10T15:27:48;3.40;;;0.80;;
19036;SDS011;9651;49.138;8.900;2023-05-10T15:31:50;0.70;;;0.70;;
19036;SDS011;9651;49.138;8.900;2023-05-10T15:35:52;1.00;;;0.88;;
19036;SDS011;9651;49.138;8.900;2023-05-10T15:39:55;1.25;;;0.80;;
19036;SDS011;9651;49.138;8.900;2023-05-10T15:44:03;4.82;;;0.65;;
19036;SDS011;9651;49.138;8.900;2023-05-10T15:48:05;4.20;;;0.70;;
19036;SDS011;9651;49.138;8.900;2023-05-10T15:52:07;0.50;;;0.50;;
19036;SDS011;9651;49.138;8.900;2023-05-10T15:56:10;0.45;;;0.45;;
19036;SDS011;9651;49.138;8.900;2023-05-10T16:00:12;1.15;;;0.50;;
19036;SDS011;9651;49.138;8.900;2023-05-10T16:04:15;0.32;;;0.32;;
19036;SDS011;9651;49.138;8.900;2023-05-10T16:08:17;0.50;;;0.50;;
19036;SDS011;9651;49.138;8.900;2023-05-10T16:12:20;0.60;;;0.40;;
19036;SDS011;9651;49.138;8.900;2023-05-10T16:16:22;1.40;;;0.60;;
19036;SDS011;9651;49.138;8.900;2023-05-10T16:20:25;0.88;;;0.60;;
19036;SDS011;9651;49.138;8.900;2023-05-10T16:24:27;1.17;;;0.50;;
19036;SDS011;9651;49.138;8.900;2023-05-10T16:28:30;1.48;;;0.50;;
19036;SDS011;9651;49.138;8.900;2023-05-10T16:32:32;2.42;;;0.70;;
19036;SDS011;9651;49.138;8.900;2023-05-10T16:36:34;2.88;;;0.75;;
19036;SDS011;9651;49.138;8.900;2023-05-10T16:40:36;0.52;;;0.52;;
19036;SDS011;9651;49.138;8.900;2023-05-10T16:44:39;1.10;;;0.70;;
19036;SDS011;9651;49.138;8.900;2023-05-10T16:48:41;2.33;;;0.52;;
19036;SDS011;9651;49.138;8.900;2023-05-10T16:52:43;0.70;;;0.50;;
19036;SDS011;9651;49.138;8.900;2023-05-10T16:56:46;0.52;;;0.47;;
19036;SDS011;9651;49.138;8.900;2023-05-10T17:00:49;0.63;;;0.55;;
19036;SDS011;9651;49.138;8.900;2023-05-10T17:04:51;3.25;;;0.70;;
19036;SDS011;9651;49.138;8.900;2023-05-10T17:08:56;1.05;;;0.50;;
19036;SDS011;9651;49.138;8.900;2023-05-10T17:13:01;0.80;;;0.68;;
19036;SDS011;9651;49.138;8.900;2023-05-10T17:17:04;2.00;;;0.40;;
19036;SDS011;9651;49.138;8.900;2023-05-10T17:21:07;1.95;;;0.50;;
19036;SDS011;9651;49.138;8.900;2023-05-10T17:25:09;1.80;;;0.80;;
19036;SDS011;9651;49.138;8.900;2023-05-10T17:29:11;1.83;;;0.65;;
19036;SDS011;9651;49.138;8.900;2023-05-10T17:33:16;0.45;;;0.45;;
19036;SDS011;9651;49.138;8.900;2023-05-10T17:37:18;0.40;;;0.40;;
19036;SDS011;9651;49.138;8.900;2023-05-10T17:41:20;3.08;;;0.70;;
19036;SDS011;9651;49.138;8.900;2023-05-10T17:45:22;1.38;;;0.57;;
19036;SDS011;9651;49.138;8.900;2023-05-10T17:49:25;1.63;;;0.70;;
19036;SDS011;9651;49.138;8.900;2023-05-10T17:53:28;1.30;;;0.50;;
19036;SDS011;9651;49.138;8.900;2023-05-10T17:57:30;0.70;;;0.52;;
19036;SDS011;9651;49.138;8.900;2023-05-10T18:01:32;0.35;;;0.35;;
19036;SDS011;9651;49.138;8.900;2023-05-10T18:05:36;1.33;;;0.90;;
19036;SDS011;9651;49.138;8.900;2023-05-10T18:09:39;1.02;;;0.65;;
19036;SDS011;9651;49.138;8.900;2023-05-10T18:13:41;3.17;;;0.75;;
19036;SDS011;9651;49.138;8.900;2023-05-10T18:17:43;1.00;;;0.70;;
19036;SDS011;9651;49.138;8.900;2023-05-10T18:21:46;0.40;;;0.40;;
19036;SDS011;9651;49.138;8.900;2023-05-10T18:25:48;0.73;;;0.60;;
19036;SDS011;9651;49.138;8.900;2023-05-10T18:29:51;1.40;;;0.50;;
19036;SDS011;9651;49.138;8.900;2023-05-10T18:33:53;0.70;;;0.60;;
19036;SDS011;9651;49.138;8.900;2023-05-10T18:37:56;1.05;;;0.55;;
19036;SDS011;9651;49.138;8.900;2023-05-10T18:41:58;1.00;;;0.60;;
19036;SDS011;9651;49.138;8.900;2023-05-10T18:46:03;1.08;;;0.70;;
19036;SDS011;9651;49.138;8.900;2023-05-10T18:50:06;0.50;;;0.47;;
19036;SDS011;9651;49.138;8.900;2023-05-10T18:54:10;2.90;;;0.75;;
19036;SDS011;9651;49.138;8.900;2023-05-10T18:58:12;1.15;;;0.70;;
19036;SDS011;9651;49.138;8.900;2023-05-10T19:02:14;0.63;;;0.50;;
19036;SDS011;9651;49.138;8.900;2023-05-10T19:06:17;1.53;;;0.70;;
19036;SDS011;9651;49.138;8.900;2023-05-10T19:10:20;2.90;;;0.80;;
19036;SDS011;9651;49.138;8.900;2023-05-10T19:14:22;2.57;;;0.60;;
19036;SDS011;9651;49.138;8.900;2023-05-10T19:18:24;2.03;;;1.10;;
19036;SDS011;9651;49.138;8.900;2023-05-10T19:22:27;1.65;;;0.65;;
19036;SDS011;9651;49.138;8.900;2023-05-10T19:26:30;1.30;;;0.70;;
19036;SDS011;9651;49.138;8.900;2023-05-10T19:30:32;1.37;;;0.93;;
19036;SDS011;9651;49.138;8.900;2023-05-10T19:34:34;0.80;;;0.50;;
19036;SDS011;9651;49.138;8.900;2023-05-10T19:38:36;2.30;;;1.20;;
19036;SDS011;9651;49.138;8.900;2023-05-10T19:42:39;1.00;;;0.80;;
19036;SDS011;9651;49.138;8.900;2023-05-10T19:46:41;0.82;;;0.70;;
19036;SDS011;9651;49.138;8.900;2023-05-10T19:50:43;2.08;;;0.75;;
19036;SDS011;9651;49.138;8.900;2023-05-10T19:54:45;2.75;;;0.93;;
19036;SDS011;9651;49.138;8.900;2023-05-10T19:58:48;3.43;;;1.00;;
19036;SDS011;9651;49.138;8.900;2023-05-10T20:02:50;3.00;;;0.90;;
19036;SDS011;9651;49.138;8.900;2023-05-10T20:06:52;1.10;;;0.83;;
19036;SDS011;9651;49.138;8.900;2023-05-10T20:10:54;3.83;;;1.10;;
19036;SDS011;9651;49.138;8.900;2023-05-10T20:14:59;2.87;;;1.13;;
19036;SDS011;9651;49.138;8.900;2023-05-10T20:19:01;3.93;;;1.00;;
19036;SDS011;9651;49.138;8.900;2023-05-10T20:23:03;4.80;;;1.00;;
19036;SDS011;9651;49.138;8.900;2023-05-10T20:27:05;0.80;;;0.70;;
19036;SDS011;9651;49.138;8.900;2023-05-10T20:31:08;0.63;;;0.63;;
19036;SDS011;9651;49.138;8.900;2023-05-10T20:35:10;1.37;;;0.73;;
19036;SDS011;9651;49.138;8.900;2023-05-10T20:39:13;0.53;;;0.50;;
19036;SDS011;9651;49.138;8.900;2023-05-10T20:43:15;1.07;;;0.90;;
19036;SDS011;9651;49.138;8.900;2023-05-10T20:47:19;0.67;;;0.67;;
19036;SDS011;9651;49.138;8.900;2023-05-10T20:51:22;0.93;;;0.80;;
19036;SDS011;9651;49.138;8.900;2023-05-10T20:55:24;4.33;;;0.50;;
19036;SDS011;9651;49.138;8.900;2023-05-10T20:59:26;0.90;;;0.63;;
19036;SDS011;9651;49.138;8.900;2023-05-10T21:03:30;1.43;;;0.80;;
19036;SDS011;9651;49.138;8.900;2023-05-10T21:07:31;0.77;;;0.70;;
19036;SDS011;9651;49.138;8.900;2023-05-10T21:11:33;1.40;;;0.63;;
19036;SDS011;9651;49.138;8.900;2023-05-10T21:15:37;2.00;;;0.80;;
19036;SDS011;9651;49.138;8.900;2023-05-10T21:19:40;1.00;;;0.80;;
19036;SDS011;9651;49.138;8.900;2023-05-10T21:23:44;1.00;;;0.73;;
19036;SDS011;9651;49.138;8.900;2023-05-10T21:27:46;3.53;;;0.80;;
19036;SDS011;9651;49.138;8.900;2023-05-10T21:31:48;1.73;;;0.90;;
19036;SDS011;9651;49.138;8.900;2023-05-10T21:35:51;0.60;;;0.60;;
19036;SDS011;9651;49.138;8.900;2023-05-10T21:39:53;0.70;;;0.60;;
19036;SDS011;9651;49.138;8.900;2023-05-10T21:43:56;1.13;;;1.03;;
19036;SDS011;9651;49.138;8.900;2023-05-10T21:47:59;2.73;;;0.90;;
19036;SDS011;9651;49.138;8.900;2023-05-10T21:52:02;1.60;;;0.87;;
19036;SDS011;9651;49.138;8.900;2023-05-10T21:56:04;1.77;;;1.07;;
19036;SDS011;9651;49.138;8.900;2023-05-10T22:00:07;3.67;;;0.80;;
19036;SDS011;9651;49.138;8.900;2023-05-10T22:04:12;1.17;;;0.73;;
19036;SDS011;9651;49.138;8.900;2023-05-10T22:08:15;1.80;;;0.70;;
19036;SDS011;9651;49.138;8.900;2023-05-10T22:12:17;2.97;;;0.90;;
19036;SDS011;9651;49.138;8.900;2023-05-10T22:16:19;1.40;;;0.63;;
19036;SDS011;9651;49.138;8.900;2023-05-10T22:20:21;1.27;;;0.73;;
19036;SDS011;9651;49.138;8.900;2023-05-10T22:24:24;0.93;;;0.80;;
19036;SDS011;9651;49.138;8.900;2023-05-10T22:28:26;1.00;;;0.63;;
19036;SDS011;9651;49.138;8.900;2023-05-10T22:32:29;0.97;;;0.73;;
19036;SDS011;9651;49.138;8.900;2023-05-10T22:36:31;2.13;;;0.57;;
19036;SDS011;9651;49.138;8.900;2023-05-10T22:40:35;2.00;;;0.73;;
19036;SDS011;9651;49.138;8.900;2023-05-10T22:44:37;2.20;;;0.60;;
19036;SDS011;9651;49.138;8.900;2023-05-10T22:48:41;1.17;;;0.80;;
19036;SDS011;9651;49.138;8.900;2023-05-10T22:52:43;2.03;;;0.60;;
19036;SDS011;9651;49.138;8.900;2023-05-10T22:56:46;1.10;;;0.70;;
19036;SDS011;9651;49.138;8.900;2023-05-10T23:00:48;0.67;;;0.63;;
19036;SDS011;9651;49.138;8.900;2023-05-10T23:04:51;0.97;;;0.70;;
19036;SDS011;9651;49.138;8.900;2023-05-10T23:08:54;2.60;;;0.80;;
19036;SDS011;9651;49.138;8.900;2023-05-10T23:12:57;3.27;;;1.00;;
19036;SDS011;9651;49.138;8.900;2023-05-10T23:16:59;1.10;;;0.70;;
19036;SDS011;9651;49.138;8.900;2023-05-10T23:21:01;2.20;;;0.60;;
19036;SDS011;9651;49.138;8.900;2023-05-10T23:25:04;2.40;;;0.70;;
19036;SDS011;9651;49.138;8.900;2023-05-10T23:29:07;0.90;;;0.80;;
19036;SDS011;9651;49.138;8.900;2023-05-10T23:33:09;0.70;;;0.70;;
19036;SDS011;9651;49.138;8.900;2023-05-10T23:37:13;2.17;;;0.80;;
19036;SDS011;9651;49.138;8.900;2023-05-10T23:41:15;2.33;;;0.70;;
19036;SDS011;9651;49.138;8.900;2023-05-10T23:45:19;2.77;;;0.93;;
19036;SDS011;9651;49.138;8.900;2023-05-10T23:49:21;1.83;;;0.70;;
19036;SDS011;9651;49.138;8.900;2023-05-10T23:53:23;1.10;;;0.67;;
19036;SDS011;9651;49.138;8.900;2023-05-10T23:57:25;0.60;;;0.53;;
